Accueil
METAR-TAF:

METAR-TAF

Aéroports :

Aéroport international de N'Djaména

Ndjamena, Tchad

latitude: 12-08N, longitude: 015-02E, altitude: 295 m

Observation

Le bulletin a été fait il y a 53 minutes, à 11:00 UTC
Vent 10 kt de sud/sud-ouest, variant entre sud/sud-ouest et ouest
Température 41°C
Humidité 15%
Pression 1007 hPa
Visibilité: 8000 m

METAR: FTTJ 231100Z 20010KT 200V280 8000 NSC 41/09 Q1007 NOSIG

Heure: 12:53 (11:53 UTC)

Prévision

Le bulletin a été fait il y a 53 minutes, à 11:00 UTC
Prévision valable du 23 à 12 UTC au 24 à 18 UTC
Vent 6 kt de sud/sud-ouest
Visibilité: 6000 m
Temporairement
du 23 à 15 UTC au 23 à 19 UTC
Visibilité: 4000 m
brume sèche
Probabilité 30% :
Temporairement
du 23 à 22 UTC au 24 à 08 UTC
Visibilité: 2500 m
poussière généralisée

TAF: FTTJ 231100Z 2312/2418 21006KT 6000 NSC TEMPO 2315/2319 4000 HZ PROB30 TEMPO 2322/2408 2500 DU

Observations et prévisions météorologiques de plus de 4000 aéroports (messages METAR et TAF).

Les stations disponibles sont représentées par des disques jaunes et rouges sur la carte.

Passer la souris dessus pour voir le nom de la station.

Cliquer dessus pour voir les observations et prévisions météorologiques.

Pour changer de carte: cliquez sur les boutons verts avec une croix noire pour zoomer, sur le bouton vert avec un tiret pour effectuer un zoom arrière, ou sur les flèches vertes pour les cartes adjacentes.


METAR-TAF: